KPHD/PHD METAR and TAF weather

Enter ICAO airport designator
Station Type Date Time Source
KPHD METAR 2019/08/23 14:53 UTC NOAA

KPHD 231453Z AUTO 02006KT 10SM CLR 19/13 A3014 RMK AO2 SLP204 T01890128 53008


Station Type Date Time Source
KPHD Decoded METAR 2019/08/23 14:53 UTC NOAA

Station name not available
Aug 23, 2019 - 10:53 AM EDT / 2019.08.23 1453 UTC
Wind: from the NNE (020 degrees) at 7 MPH (6 KT):0
Visibility: 10 mile(s):0
Sky conditions: clear
Temperature: 66.0 F (18.9 C)
Dew Point: 55.0 F (12.8 C)
Relative Humidity: 67%
Pressure (altimeter): 30.14 in. Hg (1020 hPa)
Pressure tendency: 0.02 inches (0.8 hPa) higher than three hours ago
ob: KPHD 231453Z AUTO 02006KT 10SM CLR 19/13 A3014 RMK AO2 SLP204 T01890128 53008
cycle: 15

Station Type Date Time Source
KPHD TAF UTC NOAA

Error!

Example: see airport list